Slow Dance — WDF7270 — position and weather

sailwx.info

Track history (hours):
 
Tides and Currents Weather Stations Pressure Air Temp Water Temp Dewpoint Dewpoint Depression Visibility Wind Speed Wind Dir Waves Ship Positions

Slow Dance

Owner: Levanson, Ron, Los Angeles, CA. More information available from US FCC via Universal Licensing System and Coast Guard Vessel Documentation Center.

Last reported at 2017-Oct-23 17:41 UTC. Time now 2017-Nov-23 00:19 UTC.
Position S 32°56' E 152°10'.
Warning: this ship's position is 30 days out of date.

Length 22 m.

Type: Sailing vessel. MMSI: 367482810.

Date/timePositionNaut miles runAvg speedWind from/ knotsBaromVisibWave heightAir tempDewpointWater temp
2017-Oct-23 17:41S 32°56' E 152°10'2 8.7
2017-Oct-23 17:30S 32°55' E 152°11'4 8.6
2017-Oct-23 17:00S 32°51' E 152°14'4 7.7
2017-Oct-23 16:30S 32°48' E 152°17'4 7.4
2017-Oct-23 16:00S 32°46' E 152°20'4 7.5
2017-Oct-23 15:30S 32°43' E 152°23'4 7.7
2017-Oct-23 15:00S 32°40' E 152°26'4 8.3
2017-Oct-23 14:30S 32°37' E 152°29'268 8.0
2017-Oct-22 05:08S 28°16' E 153°40'1 7.4
2017-Oct-22 04:59S 28°15' E 153°40'3 7.2
2017-Oct-22 04:30S 28°11' E 153°40'3 6.6
2017-Oct-22 04:00S 28°08' E 153°38'3 6.6
2017-Oct-22 03:30S 28°06' E 153°36'4 7.1
2017-Oct-22 02:58S 28°03' E 153°33'4 6.8
2017-Oct-22 02:22S 27°60' E 153°30'3 7.0
2017-Oct-22 02:00S 27°58' E 153°28'3 5.1
2017-Oct-22 01:20S 27°56' E 153°25'2 6.0
2017-Oct-22 01:00S 27°54' E 153°25'2 3.9
2017-Oct-22 00:30S 27°53' E 153°23'2 4.4
2017-Oct-22 00:00S 27°51' E 153°22'1 3.0
2017-Oct-21 23:30S 27°52' E 153°20'0 0.0
2017-Oct-21 12:54S 27°52' E 153°20'0 0.0
2017-Oct-21 12:29S 27°52' E 153°20'0 0.0
2017-Oct-21 11:59S 27°52' E 153°20'0 0.0
2017-Oct-21 11:29S 27°52' E 153°20'0 0.0
2017-Oct-21 10:59S 27°52' E 153°20'0 0.0
2017-Oct-21 10:29S 27°52' E 153°20'0 0.0
2017-Oct-21 09:59S 27°52' E 153°20'0 0.0
2017-Oct-21 09:29S 27°52' E 153°20'0 0.0
2017-Oct-21 08:59S 27°52' E 153°20'0 0.0
2017-Oct-21 08:29S 27°52' E 153°20'0 0.0
2017-Oct-21 07:59S 27°52' E 153°20'0 0.0
2017-Oct-21 07:29S 27°52' E 153°20'0 0.0
2017-Oct-21 06:59S 27°52' E 153°20'0 0.0
2017-Oct-21 06:29S 27°52' E 153°20'0 0.0
2017-Oct-21 05:59S 27°52' E 153°20'0 0.0
2017-Oct-21 05:26S 27°52' E 153°20'0 0.0
2017-Oct-21 04:59S 27°52' E 153°20'0 0.0
2017-Oct-21 04:29S 27°52' E 153°20'0 0.0
2017-Oct-21 03:59S 27°52' E 153°20'0 0.0
2017-Oct-21 03:29S 27°52' E 153°20'0 0.0
2017-Oct-21 02:56S 27°52' E 153°20'0 0.0
2017-Oct-21 02:29S 27°52' E 153°20'0 0.0
2017-Oct-21 01:59S 27°52' E 153°20'0 0.0
2017-Oct-21 01:29S 27°52' E 153°20'0 0.0
2017-Oct-21 00:59S 27°52' E 153°20'0 0.0
2017-Oct-21 00:26S 27°52' E 153°20'0 0.0
2017-Oct-20 23:59S 27°52' E 153°20'0 0.0
2017-Oct-20 23:29S 27°52' E 153°20'0 0.0
2017-Oct-20 22:59S 27°52' E 153°20'0 0.0
2017-Oct-20 22:29S 27°52' E 153°20'0 0.0
2017-Oct-20 21:59S 27°52' E 153°20'0 0.0
2017-Oct-20 21:29S 27°52' E 153°20'0 0.0
2017-Oct-20 20:59S 27°52' E 153°20'0 0.0
2017-Oct-20 20:26S 27°52' E 153°20'0 0.0
2017-Oct-20 19:59S 27°52' E 153°20'0 0.0
2017-Oct-20 19:29S 27°52' E 153°20'0 0.0
2017-Oct-20 18:59S 27°52' E 153°20'0 0.0
2017-Oct-20 18:29S 27°52' E 153°20'0 0.0
2017-Oct-20 17:59S 27°52' E 153°20'0 0.0
2017-Oct-20 17:29S 27°52' E 153°20'0 0.0
2017-Oct-20 16:59S 27°52' E 153°20'0 0.0
2017-Oct-20 16:29S 27°52' E 153°20'0 0.0
2017-Oct-20 15:59S 27°52' E 153°20'0 0.0
2017-Oct-20 15:29S 27°52' E 153°20'0 0.0
2017-Oct-20 14:56S 27°52' E 153°20'0 0.0
2017-Oct-20 13:59S 27°52' E 153°20'0 0.0
2017-Oct-20 13:26S 27°52' E 153°20'0 0.0
2017-Oct-20 12:59S 27°52' E 153°20'0 0.0
2017-Oct-20 12:29S 27°52' E 153°20'0 0.0
2017-Oct-20 11:59S 27°52' E 153°20'0 0.0
2017-Oct-20 11:29S 27°52' E 153°20'0 0.0
2017-Oct-20 10:59S 27°52' E 153°20'0 0.0
2017-Oct-20 10:29S 27°52' E 153°20'0 0.0
2017-Oct-20 09:59S 27°52' E 153°20'0 0.0
2017-Oct-20 09:29S 27°52' E 153°20'0 0.0
2017-Oct-20 08:59S 27°52' E 153°20'0 0.0
2017-Oct-20 08:29S 27°52' E 153°20'0 0.0
2017-Oct-20 07:59S 27°52' E 153°20'0 0.0
2017-Oct-20 07:29S 27°52' E 153°20'0 0.0
2017-Oct-20 06:59S 27°52' E 153°20'0 0.0
2017-Oct-20 06:29S 27°52' E 153°20'0 0.0
2017-Oct-20 05:59S 27°52' E 153°20'0 0.0
2017-Oct-20 05:29S 27°52' E 153°20'0 0.0
2017-Oct-20 04:59S 27°52' E 153°20'0 0.0
2017-Oct-18 23:52S 27°52' E 153°20'  
Track history (hours):
 
Tides and Currents Weather Stations Pressure Air Temp Water Temp Dewpoint Dewpoint Depression Visibility Wind Speed Wind Dir Waves Ship Positions

Slow Dance

Owner: Levanson, Ron, Los Angeles, CA. More information available from US FCC via Universal Licensing System and Coast Guard Vessel Documentation Center.

Last reported at 2017-Oct-23 17:41 UTC. Time now 2017-Nov-23 00:19 UTC.
Position S 32°56' E 152°10'.
Warning: this ship's position is 30 days out of date.

Length 22 m.

Type: Sailing vessel. MMSI: 367482810.

Date/timePositionNaut miles runAvg speedWind from/ knotsBaromVisibWave heightAir tempDewpointWater temp
2017-Oct-23 17:41S 32°56' E 152°10'2 8.7
2017-Oct-23 17:30S 32°55' E 152°11'4 8.6
2017-Oct-23 17:00S 32°51' E 152°14'4 7.7
2017-Oct-23 16:30S 32°48' E 152°17'4 7.4
2017-Oct-23 16:00S 32°46' E 152°20'4 7.5
2017-Oct-23 15:30S 32°43' E 152°23'4 7.7
2017-Oct-23 15:00S 32°40' E 152°26'4 8.3
2017-Oct-23 14:30S 32°37' E 152°29'268 8.0
2017-Oct-22 05:08S 28°16' E 153°40'1 7.4
2017-Oct-22 04:59S 28°15' E 153°40'3 7.2
2017-Oct-22 04:30S 28°11' E 153°40'3 6.6
2017-Oct-22 04:00S 28°08' E 153°38'3 6.6
2017-Oct-22 03:30S 28°06' E 153°36'4 7.1
2017-Oct-22 02:58S 28°03' E 153°33'4 6.8
2017-Oct-22 02:22S 27°60' E 153°30'3 7.0
2017-Oct-22 02:00S 27°58' E 153°28'3 5.1
2017-Oct-22 01:20S 27°56' E 153°25'2 6.0
2017-Oct-22 01:00S 27°54' E 153°25'2 3.9
2017-Oct-22 00:30S 27°53' E 153°23'2 4.4
2017-Oct-22 00:00S 27°51' E 153°22'1 3.0
2017-Oct-21 23:30S 27°52' E 153°20'0 0.0
2017-Oct-21 12:54S 27°52' E 153°20'0 0.0
2017-Oct-21 12:29S 27°52' E 153°20'0 0.0
2017-Oct-21 11:59S 27°52' E 153°20'0 0.0
2017-Oct-21 11:29S 27°52' E 153°20'0 0.0
2017-Oct-21 10:59S 27°52' E 153°20'0 0.0
2017-Oct-21 10:29S 27°52' E 153°20'0 0.0
2017-Oct-21 09:59S 27°52' E 153°20'0 0.0
2017-Oct-21 09:29S 27°52' E 153°20'0 0.0
2017-Oct-21 08:59S 27°52' E 153°20'0 0.0
2017-Oct-21 08:29S 27°52' E 153°20'0 0.0
2017-Oct-21 07:59S 27°52' E 153°20'0 0.0
2017-Oct-21 07:29S 27°52' E 153°20'0 0.0
2017-Oct-21 06:59S 27°52' E 153°20'0 0.0
2017-Oct-21 06:29S 27°52' E 153°20'0 0.0
2017-Oct-21 05:59S 27°52' E 153°20'0 0.0
2017-Oct-21 05:26S 27°52' E 153°20'0 0.0
2017-Oct-21 04:59S 27°52' E 153°20'0 0.0
2017-Oct-21 04:29S 27°52' E 153°20'0 0.0
2017-Oct-21 03:59S 27°52' E 153°20'0 0.0
2017-Oct-21 03:29S 27°52' E 153°20'0 0.0
2017-Oct-21 02:56S 27°52' E 153°20'0 0.0
2017-Oct-21 02:29S 27°52' E 153°20'0 0.0
2017-Oct-21 01:59S 27°52' E 153°20'0 0.0
2017-Oct-21 01:29S 27°52' E 153°20'0 0.0
2017-Oct-21 00:59S 27°52' E 153°20'0 0.0
2017-Oct-21 00:26S 27°52' E 153°20'0 0.0
2017-Oct-20 23:59S 27°52' E 153°20'0 0.0
2017-Oct-20 23:29S 27°52' E 153°20'0 0.0
2017-Oct-20 22:59S 27°52' E 153°20'0 0.0
2017-Oct-20 22:29S 27°52' E 153°20'0 0.0
2017-Oct-20 21:59S 27°52' E 153°20'0 0.0
2017-Oct-20 21:29S 27°52' E 153°20'0 0.0
2017-Oct-20 20:59S 27°52' E 153°20'0 0.0
2017-Oct-20 20:26S 27°52' E 153°20'0 0.0
2017-Oct-20 19:59S 27°52' E 153°20'0 0.0
2017-Oct-20 19:29S 27°52' E 153°20'0 0.0
2017-Oct-20 18:59S 27°52' E 153°20'0 0.0
2017-Oct-20 18:29S 27°52' E 153°20'0 0.0
2017-Oct-20 17:59S 27°52' E 153°20'0 0.0
2017-Oct-20 17:29S 27°52' E 153°20'0 0.0
2017-Oct-20 16:59S 27°52' E 153°20'0 0.0
2017-Oct-20 16:29S 27°52' E 153°20'0 0.0
2017-Oct-20 15:59S 27°52' E 153°20'0 0.0
2017-Oct-20 15:29S 27°52' E 153°20'0 0.0
2017-Oct-20 14:56S 27°52' E 153°20'0 0.0
2017-Oct-20 13:59S 27°52' E 153°20'0 0.0
2017-Oct-20 13:26S 27°52' E 153°20'0 0.0
2017-Oct-20 12:59S 27°52' E 153°20'0 0.0
2017-Oct-20 12:29S 27°52' E 153°20'0 0.0
2017-Oct-20 11:59S 27°52' E 153°20'0 0.0
2017-Oct-20 11:29S 27°52' E 153°20'0 0.0
2017-Oct-20 10:59S 27°52' E 153°20'0 0.0
2017-Oct-20 10:29S 27°52' E 153°20'0 0.0
2017-Oct-20 09:59S 27°52' E 153°20'0 0.0
2017-Oct-20 09:29S 27°52' E 153°20'0 0.0
2017-Oct-20 08:59S 27°52' E 153°20'0 0.0
2017-Oct-20 08:29S 27°52' E 153°20'0 0.0
2017-Oct-20 07:59S 27°52' E 153°20'0 0.0
2017-Oct-20 07:29S 27°52' E 153°20'0 0.0
2017-Oct-20 06:59S 27°52' E 153°20'0 0.0
2017-Oct-20 06:29S 27°52' E 153°20'0 0.0
2017-Oct-20 05:59S 27°52' E 153°20'0 0.0
2017-Oct-20 05:29S 27°52' E 153°20'0 0.0
2017-Oct-20 04:59S 27°52' E 153°20'0 0.0
2017-Oct-18 23:52S 27°52' E 153°20'  

Dump ship's entire track history